sensor_id;sensor_type;location;lat;lon;timestamp;P1;durP1;ratioP1;P2;durP2;ratioP2
86619;SDS011;77338;48.126;11.620;2024-03-23T00:52:28;4.28;;;2.30;;
86619;SDS011;77338;48.126;11.620;2024-03-23T00:54:03;4.60;;;2.38;;
86619;SDS011;77338;48.126;11.620;2024-03-23T00:54:34;5.25;;;2.38;;
86619;SDS011;77338;48.126;11.620;2024-03-23T00:55:05;4.18;;;2.22;;
86619;SDS011;77338;48.126;11.620;2024-03-23T00:55:35;4.47;;;2.53;;
86619;SDS011;77338;48.126;11.620;2024-03-23T00:56:06;3.75;;;2.20;;
86619;SDS011;77338;48.126;11.620;2024-03-23T00:56:37;5.38;;;2.85;;
86619;SDS011;77338;48.126;11.620;2024-03-23T00:57:07;3.08;;;2.30;;
86619;SDS011;77338;48.126;11.620;2024-03-23T00:57:38;4.35;;;2.38;;
86619;SDS011;77338;48.126;11.620;2024-03-23T00:58:09;4.93;;;2.38;;
86619;SDS011;77338;48.126;11.620;2024-03-23T00:58:40;3.63;;;2.28;;
86619;SDS011;77338;48.126;11.620;2024-03-23T00:59:10;3.63;;;2.20;;
86619;SDS011;77338;48.126;11.620;2024-03-23T00:59:42;4.07;;;2.30;;
86619;SDS011;77338;48.126;11.620;2024-03-23T01:00:13;4.05;;;2.15;;
86619;SDS011;77338;48.126;11.620;2024-03-23T01:00:44;3.80;;;2.28;;
86619;SDS011;77338;48.126;11.620;2024-03-23T01:01:15;2.90;;;1.77;;
86619;SDS011;77338;48.126;11.620;2024-03-23T01:01:45;4.45;;;2.47;;
86619;SDS011;77338;48.126;11.620;2024-03-23T01:02:16;3.33;;;2.35;;
86619;SDS011;77338;48.126;11.620;2024-03-23T01:02:47;7.00;;;2.70;;
86619;SDS011;77338;48.126;11.620;2024-03-23T01:03:17;4.43;;;2.17;;
86619;SDS011;77338;48.126;11.620;2024-03-23T01:03:48;5.47;;;2.58;;
86619;SDS011;77338;48.126;11.620;2024-03-23T01:04:19;7.35;;;2.58;;
86619;SDS011;77338;48.126;11.620;2024-03-23T01:04:50;4.78;;;2.85;;
86619;SDS011;77338;48.126;11.620;2024-03-23T01:05:20;4.18;;;2.38;;
86619;SDS011;77338;48.126;11.620;2024-03-23T01:05:51;5.47;;;2.15;;
86619;SDS011;77338;48.126;11.620;2024-03-23T01:06:24;3.50;;;1.95;;
86619;SDS011;77338;48.126;11.620;2024-03-23T01:06:55;4.63;;;2.20;;
86619;SDS011;77338;48.126;11.620;2024-03-23T01:07:25;4.57;;;2.60;;
86619;SDS011;77338;48.126;11.620;2024-03-23T01:07:56;3.40;;;2.20;;
86619;SDS011;77338;48.126;11.620;2024-03-23T01:08:27;3.78;;;2.10;;
86619;SDS011;77338;48.126;11.620;2024-03-23T01:08:57;4.00;;;2.33;;
86619;SDS011;77338;48.126;11.620;2024-03-23T01:09:28;4.43;;;2.47;;
86619;SDS011;77338;48.126;11.620;2024-03-23T01:09:59;5.35;;;2.50;;
86619;SDS011;77338;48.126;11.620;2024-03-23T01:10:29;9.13;;;2.75;;
86619;SDS011;77338;48.126;11.620;2024-03-23T01:11:01;5.47;;;2.63;;
86619;SDS011;77338;48.126;11.620;2024-03-23T01:11:33;5.20;;;2.60;;
86619;SDS011;77338;48.126;11.620;2024-03-23T01:12:05;4.78;;;2.40;;
86619;SDS011;77338;48.126;11.620;2024-03-23T01:12:35;5.85;;;2.40;;
86619;SDS011;77338;48.126;11.620;2024-03-23T01:13:06;3.30;;;2.13;;
86619;SDS011;77338;48.126;11.620;2024-03-23T01:13:37;4.28;;;2.53;;
86619;SDS011;77338;48.126;11.620;2024-03-23T01:14:07;5.00;;;2.40;;
86619;SDS011;77338;48.126;11.620;2024-03-23T01:14:38;4.15;;;2.22;;
86619;SDS011;77338;48.126;11.620;2024-03-23T01:15:09;3.58;;;2.25;;
86619;SDS011;77338;48.126;11.620;2024-03-23T01:15:40;3.65;;;2.35;;
86619;SDS011;77338;48.126;11.620;2024-03-23T01:16:10;2.33;;;1.75;;
86619;SDS011;77338;48.126;11.620;2024-03-23T01:16:41;3.67;;;2.47;;
86619;SDS011;77338;48.126;11.620;2024-03-23T01:17:12;3.10;;;1.95;;
86619;SDS011;77338;48.126;11.620;2024-03-23T01:17:43;5.45;;;2.33;;
86619;SDS011;77338;48.126;11.620;2024-03-23T01:18:13;3.30;;;1.85;;
86619;SDS011;77338;48.126;11.620;2024-03-23T01:18:44;4.82;;;2.47;;
86619;SDS011;77338;48.126;11.620;2024-03-23T01:19:15;3.92;;;2.78;;
86619;SDS011;77338;48.126;11.620;2024-03-23T01:19:46;3.38;;;2.45;;
86619;SDS011;77338;48.126;11.620;2024-03-23T01:20:16;3.45;;;2.22;;
86619;SDS011;77338;48.126;11.620;2024-03-23T01:20:47;4.18;;;2.45;;
86619;SDS011;77338;48.126;11.620;2024-03-23T01:21:18;3.67;;;2.45;;
86619;SDS011;77338;48.126;11.620;2024-03-23T01:21:50;3.17;;;2.40;;
86619;SDS011;77338;48.126;11.620;2024-03-23T01:22:21;3.55;;;2.10;;
86619;SDS011;77338;48.126;11.620;2024-03-23T01:22:52;5.35;;;2.83;;
86619;SDS011;77338;48.126;11.620;2024-03-23T01:23:23;3.53;;;2.35;;
86619;SDS011;77338;48.126;11.620;2024-03-23T01:23:53;3.25;;;2.00;;
86619;SDS011;77338;48.126;11.620;2024-03-23T01:24:24;4.03;;;2.70;;
86619;SDS011;77338;48.126;11.620;2024-03-23T01:24:55;3.00;;;1.90;;
86619;SDS011;77338;48.126;11.620;2024-03-23T01:25:26;4.35;;;2.33;;
86619;SDS011;77338;48.126;11.620;2024-03-23T01:25:56;3.83;;;2.40;;
86619;SDS011;77338;48.126;11.620;2024-03-23T01:26:27;2.72;;;2.28;;
86619;SDS011;77338;48.126;11.620;2024-03-23T01:26:58;3.15;;;2.10;;
86619;SDS011;77338;48.126;11.620;2024-03-23T01:27:28;3.92;;;2.22;;
86619;SDS011;77338;48.126;11.620;2024-03-23T01:27:59;3.55;;;2.20;;
86619;SDS011;77338;48.126;11.620;2024-03-23T01:28:30;3.78;;;2.00;;
86619;SDS011;77338;48.126;11.620;2024-03-23T01:29:00;5.35;;;2.28;;
86619;SDS011;77338;48.126;11.620;2024-03-23T01:29:31;4.28;;;2.20;;
86619;SDS011;77338;48.126;11.620;2024-03-23T01:30:02;3.92;;;2.50;;
86619;SDS011;77338;48.126;11.620;2024-03-23T01:30:33;2.75;;;2.03;;
86619;SDS011;77338;48.126;11.620;2024-03-23T01:31:05;3.65;;;2.22;;
86619;SDS011;77338;48.126;11.620;2024-03-23T01:31:35;3.45;;;2.25;;
86619;SDS011;77338;48.126;11.620;2024-03-23T01:32:06;4.75;;;2.50;;
86619;SDS011;77338;48.126;11.620;2024-03-23T01:32:37;5.93;;;3.78;;
86619;SDS011;77338;48.126;11.620;2024-03-23T01:33:08;5.25;;;2.95;;
86619;SDS011;77338;48.126;11.620;2024-03-23T01:33:38;4.82;;;4.00;;
86619;SDS011;77338;48.126;11.620;2024-03-23T01:34:09;6.88;;;3.92;;
86619;SDS011;77338;48.126;11.620;2024-03-23T01:34:40;4.93;;;3.55;;
86619;SDS011;77338;48.126;11.620;2024-03-23T01:35:10;3.60;;;3.00;;
86619;SDS011;77338;48.126;11.620;2024-03-23T01:35:41;4.35;;;2.20;;
86619;SDS011;77338;48.126;11.620;2024-03-23T01:36:12;5.00;;;2.25;;
86619;SDS011;77338;48.126;11.620;2024-03-23T01:36:42;3.80;;;2.17;;
86619;SDS011;77338;48.126;11.620;2024-03-23T01:37:16;6.28;;;2.30;;
86619;SDS011;77338;48.126;11.620;2024-03-23T01:37:47;3.70;;;2.28;;
86619;SDS011;77338;48.126;11.620;2024-03-23T01:38:18;3.95;;;2.10;;
86619;SDS011;77338;48.126;11.620;2024-03-23T01:38:50;3.28;;;1.83;;
86619;SDS011;77338;48.126;11.620;2024-03-23T01:39:22;3.85;;;2.80;;
86619;SDS011;77338;48.126;11.620;2024-03-23T01:39:52;2.45;;;1.95;;
86619;SDS011;77338;48.126;11.620;2024-03-23T01:40:23;4.18;;;1.88;;
86619;SDS011;77338;48.126;11.620;2024-03-23T01:40:57;2.70;;;1.92;;
86619;SDS011;77338;48.126;11.620;2024-03-23T01:41:28;4.00;;;2.22;;
86619;SDS011;77338;48.126;11.620;2024-03-23T01:41:59;3.85;;;2.35;;
86619;SDS011;77338;48.126;11.620;2024-03-23T01:42:29;3.42;;;1.98;;
86619;SDS011;77338;48.126;11.620;2024-03-23T01:43:07;3.08;;;1.92;;
86619;SDS011;77338;48.126;11.620;2024-03-23T01:43:38;3.10;;;1.73;;
86619;SDS011;77338;48.126;11.620;2024-03-23T01:44:09;2.35;;;1.60;;
86619;SDS011;77338;48.126;11.620;2024-03-23T01:44:41;2.65;;;1.67;;
86619;SDS011;77338;48.126;11.620;2024-03-23T01:45:11;3.30;;;1.88;;
86619;SDS011;77338;48.126;11.620;2024-03-23T01:45:43;2.85;;;1.50;;
86619;SDS011;77338;48.126;11.620;2024-03-23T01:46:14;6.05;;;2.00;;
86619;SDS011;77338;48.126;11.620;2024-03-23T01:46:44;3.75;;;2.08;;
86619;SDS011;77338;48.126;11.620;2024-03-23T01:47:15;6.13;;;1.95;;
86619;SDS011;77338;48.126;11.620;2024-03-23T01:47:46;3.58;;;1.65;;
86619;SDS011;77338;48.126;11.620;2024-03-23T01:48:17;3.58;;;2.10;;
86619;SDS011;77338;48.126;11.620;2024-03-23T01:48:48;3.88;;;1.65;;
86619;SDS011;77338;48.126;11.620;2024-03-23T01:49:20;2.60;;;1.70;;
86619;SDS011;77338;48.126;11.620;2024-03-23T01:49:51;4.13;;;2.22;;
86619;SDS011;77338;48.126;11.620;2024-03-23T01:50:22;2.97;;;1.95;;
86619;SDS011;77338;48.126;11.620;2024-03-23T01:50:54;3.58;;;1.77;;
86619;SDS011;77338;48.126;11.620;2024-03-23T01:51:25;3.60;;;1.85;;
86619;SDS011;77338;48.126;11.620;2024-03-23T01:51:56;3.75;;;1.45;;
86619;SDS011;77338;48.126;11.620;2024-03-23T01:52:27;5.38;;;1.83;;
86619;SDS011;77338;48.126;11.620;2024-03-23T01:52:58;5.15;;;2.40;;
86619;SDS011;77338;48.126;11.620;2024-03-23T01:53:29;4.32;;;2.10;;
86619;SDS011;77338;48.126;11.620;2024-03-23T01:54:00;2.92;;;2.00;;
86619;SDS011;77338;48.126;11.620;2024-03-23T01:54:33;3.90;;;2.08;;
86619;SDS011;77338;48.126;11.620;2024-03-23T01:55:05;4.68;;;2.15;;
86619;SDS011;77338;48.126;11.620;2024-03-23T01:55:37;2.67;;;1.92;;
86619;SDS011;77338;48.126;11.620;2024-03-23T01:56:09;3.17;;;1.92;;
86619;SDS011;77338;48.126;11.620;2024-03-23T01:56:40;3.05;;;1.70;;
86619;SDS011;77338;48.126;11.620;2024-03-23T01:57:10;2.90;;;1.60;;
86619;SDS011;77338;48.126;11.620;2024-03-23T01:57:41;7.40;;;2.00;;
86619;SDS011;77338;48.126;11.620;2024-03-23T01:58:12;3.50;;;1.90;;
86619;SDS011;77338;48.126;11.620;2024-03-23T01:58:43;3.92;;;1.75;;
86619;SDS011;77338;48.126;11.620;2024-03-23T01:59:14;4.20;;;2.03;;
86619;SDS011;77338;48.126;11.620;2024-03-23T01:59:44;2.78;;;2.08;;
86619;SDS011;77338;48.126;11.620;2024-03-23T02:00:15;3.05;;;1.70;;
86619;SDS011;77338;48.126;11.620;2024-03-23T02:00:46;4.65;;;2.30;;
86619;SDS011;77338;48.126;11.620;2024-03-23T02:01:17;3.63;;;1.70;;
86619;SDS011;77338;48.126;11.620;2024-03-23T02:01:49;4.38;;;1.80;;
86619;SDS011;77338;48.126;11.620;2024-03-23T02:02:21;2.72;;;1.65;;
86619;SDS011;77338;48.126;11.620;2024-03-23T02:02:52;3.13;;;1.85;;
86619;SDS011;77338;48.126;11.620;2024-03-23T02:03:23;3.22;;;1.80;;
86619;SDS011;77338;48.126;11.620;2024-03-23T02:03:55;4.47;;;2.47;;
86619;SDS011;77338;48.126;11.620;2024-03-23T02:04:26;6.18;;;2.22;;
86619;SDS011;77338;48.126;11.620;2024-03-23T02:04:56;2.58;;;1.80;;
86619;SDS011;77338;48.126;11.620;2024-03-23T02:05:27;2.70;;;1.80;;
86619;SDS011;77338;48.126;11.620;2024-03-23T02:05:58;3.17;;;1.52;;
86619;SDS011;77338;48.126;11.620;2024-03-23T02:06:29;3.00;;;1.55;;
86619;SDS011;77338;48.126;11.620;2024-03-23T02:07:01;2.40;;;1.80;;
86619;SDS011;77338;48.126;11.620;2024-03-23T02:07:32;4.43;;;1.65;;
86619;SDS011;77338;48.126;11.620;2024-03-23T02:08:02;2.70;;;1.90;;
86619;SDS011;77338;48.126;11.620;2024-03-23T02:08:33;3.22;;;1.83;;
86619;SDS011;77338;48.126;11.620;2024-03-23T02:09:05;3.67;;;2.03;;
86619;SDS011;77338;48.126;11.620;2024-03-23T02:09:35;4.03;;;2.20;;
86619;SDS011;77338;48.126;11.620;2024-03-23T02:10:07;2.38;;;1.50;;
86619;SDS011;77338;48.126;11.620;2024-03-23T02:10:38;2.72;;;1.98;;
86619;SDS011;77338;48.126;11.620;2024-03-23T02:11:08;2.00;;;1.73;;
86619;SDS011;77338;48.126;11.620;2024-03-23T02:11:39;3.53;;;2.05;;
86619;SDS011;77338;48.126;11.620;2024-03-23T02:12:11;2.83;;;2.03;;
86619;SDS011;77338;48.126;11.620;2024-03-23T02:12:42;3.75;;;2.08;;
86619;SDS011;77338;48.126;11.620;2024-03-23T02:13:14;3.28;;;1.75;;
86619;SDS011;77338;48.126;11.620;2024-03-23T02:13:44;3.47;;;1.80;;
86619;SDS011;77338;48.126;11.620;2024-03-23T02:14:15;3.53;;;1.92;;
86619;SDS011;77338;48.126;11.620;2024-03-23T02:14:46;3.15;;;1.73;;
86619;SDS011;77338;48.126;11.620;2024-03-23T02:15:18;5.55;;;2.95;;
86619;SDS011;77338;48.126;11.620;2024-03-23T02:15:49;2.95;;;1.60;;
86619;SDS011;77338;48.126;11.620;2024-03-23T02:16:19;2.67;;;1.83;;
86619;SDS011;77338;48.126;11.620;2024-03-23T02:16:51;2.90;;;1.77;;
86619;SDS011;77338;48.126;11.620;2024-03-23T02:17:23;3.53;;;2.35;;
86619;SDS011;77338;48.126;11.620;2024-03-23T02:17:53;2.22;;;1.80;;
86619;SDS011;77338;48.126;11.620;2024-03-23T02:18:24;3.15;;;2.22;;
86619;SDS011;77338;48.126;11.620;2024-03-23T02:18:55;3.33;;;1.40;;
86619;SDS011;77338;48.126;11.620;2024-03-23T02:19:25;2.67;;;1.65;;
86619;SDS011;77338;48.126;11.620;2024-03-23T02:19:56;4.35;;;1.95;;
86619;SDS011;77338;48.126;11.620;2024-03-23T02:20:27;4.20;;;1.88;;
86619;SDS011;77338;48.126;11.620;2024-03-23T02:20:58;2.38;;;2.03;;
86619;SDS011;77338;48.126;11.620;2024-03-23T02:21:29;3.90;;;1.92;;
86619;SDS011;77338;48.126;11.620;2024-03-23T02:22:38;2.35;;;1.75;;
86619;SDS011;77338;48.126;11.620;2024-03-23T02:23:15;3.28;;;1.90;;
86619;SDS011;77338;48.126;11.620;2024-03-23T02:23:48;3.22;;;1.88;;
86619;SDS011;77338;48.126;11.620;2024-03-23T02:24:18;3.63;;;1.85;;
86619;SDS011;77338;48.126;11.620;2024-03-23T02:24:49;3.45;;;2.08;;
86619;SDS011;77338;48.126;11.620;2024-03-23T02:25:20;3.28;;;1.75;;
86619;SDS011;77338;48.126;11.620;2024-03-23T02:25:51;4.07;;;1.83;;
86619;SDS011;77338;48.126;11.620;2024-03-23T02:26:53;3.40;;;1.50;;
86619;SDS011;77338;48.126;11.620;2024-03-23T02:27:24;2.75;;;1.75;;
86619;SDS011;77338;48.126;11.620;2024-03-23T02:27:55;3.15;;;1.83;;
86619;SDS011;77338;48.126;11.620;2024-03-23T02:28:26;2.72;;;2.00;;
86619;SDS011;77338;48.126;11.620;2024-03-23T02:28:56;2.78;;;1.90;;
86619;SDS011;77338;48.126;11.620;2024-03-23T02:29:27;3.38;;;1.63;;
86619;SDS011;77338;48.126;11.620;2024-03-23T02:29:58;4.07;;;1.80;;
86619;SDS011;77338;48.126;11.620;2024-03-23T02:30:29;5.22;;;2.00;;
86619;SDS011;77338;48.126;11.620;2024-03-23T02:30:59;3.25;;;2.00;;
86619;SDS011;77338;48.126;11.620;2024-03-23T02:31:31;2.65;;;1.85;;
86619;SDS011;77338;48.126;11.620;2024-03-23T02:32:02;3.13;;;2.10;;
86619;SDS011;77338;48.126;11.620;2024-03-23T02:32:33;3.85;;;1.92;;
86619;SDS011;77338;48.126;11.620;2024-03-23T02:33:03;3.78;;;2.05;;
86619;SDS011;77338;48.126;11.620;2024-03-23T02:33:34;2.72;;;1.90;;
86619;SDS011;77338;48.126;11.620;2024-03-23T02:34:08;2.78;;;1.80;;
86619;SDS011;77338;48.126;11.620;2024-03-23T02:34:39;3.03;;;2.15;;
86619;SDS011;77338;48.126;11.620;2024-03-23T02:35:09;4.20;;;2.13;;
86619;SDS011;77338;48.126;11.620;2024-03-23T02:35:40;2.97;;;1.88;;
86619;SDS011;77338;48.126;11.620;2024-03-23T02:36:11;2.67;;;1.75;;
86619;SDS011;77338;48.126;11.620;2024-03-23T02:36:42;2.15;;;1.65;;
86619;SDS011;77338;48.126;11.620;2024-03-23T02:37:12;4.57;;;1.70;;
86619;SDS011;77338;48.126;11.620;2024-03-23T02:37:43;3.15;;;2.13;;
86619;SDS011;77338;48.126;11.620;2024-03-23T02:38:14;3.35;;;2.33;;
86619;SDS011;77338;48.126;11.620;2024-03-23T02:38:44;3.88;;;1.90;;
86619;SDS011;77338;48.126;11.620;2024-03-23T02:39:15;2.80;;;2.00;;
86619;SDS011;77338;48.126;11.620;2024-03-23T02:39:46;2.42;;;1.60;;
86619;SDS011;77338;48.126;11.620;2024-03-23T02:40:17;3.53;;;1.90;;
86619;SDS011;77338;48.126;11.620;2024-03-23T02:40:47;2.90;;;2.08;;
86619;SDS011;77338;48.126;11.620;2024-03-23T02:41:18;2.67;;;2.08;;
86619;SDS011;77338;48.126;11.620;2024-03-23T02:41:53;3.55;;;2.20;;
86619;SDS011;77338;48.126;11.620;2024-03-23T02:42:23;3.13;;;1.83;;
86619;SDS011;77338;48.126;11.620;2024-03-23T02:42:54;2.60;;;2.03;;
86619;SDS011;77338;48.126;11.620;2024-03-23T02:43:25;2.47;;;1.60;;
86619;SDS011;77338;48.126;11.620;2024-03-23T02:43:56;3.28;;;2.17;;
86619;SDS011;77338;48.126;11.620;2024-03-23T02:44:27;2.45;;;1.98;;
86619;SDS011;77338;48.126;11.620;2024-03-23T02:44:58;3.35;;;2.15;;
86619;SDS011;77338;48.126;11.620;2024-03-23T02:45:29;3.05;;;1.90;;
86619;SDS011;77338;48.126;11.620;2024-03-23T02:46:00;3.25;;;1.70;;
86619;SDS011;77338;48.126;11.620;2024-03-23T02:46:31;5.63;;;1.92;;
86619;SDS011;77338;48.126;11.620;2024-03-23T02:47:02;4.55;;;2.03;;
86619;SDS011;77338;48.126;11.620;2024-03-23T02:47:33;3.58;;;2.00;;
86619;SDS011;77338;48.126;11.620;2024-03-23T02:48:04;2.90;;;1.63;;
86619;SDS011;77338;48.126;11.620;2024-03-23T02:48:35;2.90;;;2.03;;
86619;SDS011;77338;48.126;11.620;2024-03-23T02:49:07;2.90;;;1.50;;
86619;SDS011;77338;48.126;11.620;2024-03-23T02:49:38;2.22;;;1.27;;
86619;SDS011;77338;48.126;11.620;2024-03-23T02:50:08;3.30;;;1.90;;
86619;SDS011;77338;48.126;11.620;2024-03-23T02:50:39;3.53;;;1.92;;
86619;SDS011;77338;48.126;11.620;2024-03-23T02:51:10;2.35;;;1.80;;
86619;SDS011;77338;48.126;11.620;2024-03-23T02:51:41;4.13;;;1.60;;
86619;SDS011;77338;48.126;11.620;2024-03-23T02:52:15;2.85;;;1.80;;
86619;SDS011;77338;48.126;11.620;2024-03-23T02:52:46;3.45;;;2.00;;
86619;SDS011;77338;48.126;11.620;2024-03-23T02:53:17;4.05;;;2.13;;
86619;SDS011;77338;48.126;11.620;2024-03-23T02:53:50;3.38;;;1.63;;
86619;SDS011;77338;48.126;11.620;2024-03-23T02:54:20;4.20;;;1.88;;
86619;SDS011;77338;48.126;11.620;2024-03-23T02:54:52;2.20;;;1.70;;
86619;SDS011;77338;48.126;11.620;2024-03-23T02:55:23;2.15;;;1.50;;
86619;SDS011;77338;48.126;11.620;2024-03-23T02:55:54;4.25;;;1.92;;
86619;SDS011;77338;48.126;11.620;2024-03-23T02:56:25;3.13;;;1.88;;
86619;SDS011;77338;48.126;11.620;2024-03-23T02:56:55;3.55;;;1.55;;
86619;SDS011;77338;48.126;11.620;2024-03-23T02:57:26;4.40;;;1.60;;
86619;SDS011;77338;48.126;11.620;2024-03-23T02:57:57;3.03;;;1.60;;
86619;SDS011;77338;48.126;11.620;2024-03-23T02:58:32;2.33;;;1.70;;
86619;SDS011;77338;48.126;11.620;2024-03-23T02:59:02;4.85;;;1.80;;
86619;SDS011;77338;48.126;11.620;2024-03-23T02:59:33;3.38;;;1.85;;
86619;SDS011;77338;48.126;11.620;2024-03-23T03:00:04;4.30;;;1.50;;
86619;SDS011;77338;48.126;11.620;2024-03-23T03:00:36;2.90;;;1.45;;
86619;SDS011;77338;48.126;11.620;2024-03-23T03:01:07;2.33;;;1.52;;
86619;SDS011;77338;48.126;11.620;2024-03-23T03:01:38;3.08;;;1.45;;
86619;SDS011;77338;48.126;11.620;2024-03-23T03:02:08;4.15;;;1.67;;
86619;SDS011;77338;48.126;11.620;2024-03-23T03:02:39;2.90;;;1.58;;
86619;SDS011;77338;48.126;11.620;2024-03-23T03:03:10;2.97;;;1.83;;
86619;SDS011;77338;48.126;11.620;2024-03-23T03:03:40;3.92;;;1.50;;
86619;SDS011;77338;48.126;11.620;2024-03-23T03:04:11;2.53;;;1.67;;
86619;SDS011;77338;48.126;11.620;2024-03-23T03:04:42;2.58;;;1.90;;
86619;SDS011;77338;48.126;11.620;2024-03-23T03:05:12;2.53;;;1.80;;
86619;SDS011;77338;48.126;11.620;2024-03-23T03:05:46;2.42;;;1.73;;
86619;SDS011;77338;48.126;11.620;2024-03-23T03:06:25;4.80;;;1.48;;
86619;SDS011;77338;48.126;11.620;2024-03-23T03:06:57;3.08;;;1.50;;
86619;SDS011;77338;48.126;11.620;2024-03-23T03:07:27;3.60;;;1.75;;
86619;SDS011;77338;48.126;11.620;2024-03-23T03:07:58;2.60;;;1.50;;
86619;SDS011;77338;48.126;11.620;2024-03-23T03:08:29;2.45;;;1.70;;
86619;SDS011;77338;48.126;11.620;2024-03-23T03:08:59;3.90;;;1.83;;
86619;SDS011;77338;48.126;11.620;2024-03-23T03:09:30;4.15;;;1.58;;
86619;SDS011;77338;48.126;11.620;2024-03-23T03:10:02;2.85;;;2.25;;
86619;SDS011;77338;48.126;11.620;2024-03-23T03:10:34;4.47;;;1.77;;
86619;SDS011;77338;48.126;11.620;2024-03-23T03:11:06;3.15;;;1.70;;
86619;SDS011;77338;48.126;11.620;2024-03-23T03:11:37;2.50;;;1.85;;
86619;SDS011;77338;48.126;11.620;2024-03-23T03:12:07;3.53;;;1.70;;
86619;SDS011;77338;48.126;11.620;2024-03-23T03:12:38;2.83;;;1.70;;
86619;SDS011;77338;48.126;11.620;2024-03-23T03:13:10;3.70;;;1.70;;
86619;SDS011;77338;48.126;11.620;2024-03-23T03:13:41;4.40;;;1.90;;
86619;SDS011;77338;48.126;11.620;2024-03-23T03:14:11;2.53;;;1.45;;
86619;SDS011;77338;48.126;11.620;2024-03-23T03:14:42;3.45;;;1.70;;
86619;SDS011;77338;48.126;11.620;2024-03-23T03:15:14;2.70;;;1.63;;
86619;SDS011;77338;48.126;11.620;2024-03-23T03:15:45;2.88;;;1.73;;
86619;SDS011;77338;48.126;11.620;2024-03-23T03:16:16;3.83;;;1.85;;
86619;SDS011;77338;48.126;11.620;2024-03-23T03:16:47;2.88;;;1.70;;
86619;SDS011;77338;48.126;11.620;2024-03-23T03:17:18;2.30;;;1.52;;
86619;SDS011;77338;48.126;11.620;2024-03-23T03:17:49;3.67;;;1.77;;
86619;SDS011;77338;48.126;11.620;2024-03-23T03:18:20;3.75;;;1.80;;
86619;SDS011;77338;48.126;11.620;2024-03-23T03:18:50;2.70;;;1.70;;
86619;SDS011;77338;48.126;11.620;2024-03-23T03:19:23;5.32;;;2.03;;
86619;SDS011;77338;48.126;11.620;2024-03-23T03:19:53;2.13;;;1.60;;
86619;SDS011;77338;48.126;11.620;2024-03-23T03:20:26;2.78;;;1.50;;
86619;SDS011;77338;48.126;11.620;2024-03-23T03:20:57;2.60;;;1.60;;
86619;SDS011;77338;48.126;11.620;2024-03-23T03:21:27;2.90;;;1.70;;
86619;SDS011;77338;48.126;11.620;2024-03-23T03:21:58;2.63;;;1.70;;
86619;SDS011;77338;48.126;11.620;2024-03-23T03:22:29;4.32;;;1.65;;
86619;SDS011;77338;48.126;11.620;2024-03-23T03:23:00;3.42;;;1.70;;
86619;SDS011;77338;48.126;11.620;2024-03-23T03:23:31;4.40;;;1.70;;
86619;SDS011;77338;48.126;11.620;2024-03-23T03:24:02;2.80;;;1.65;;
86619;SDS011;77338;48.126;11.620;2024-03-23T03:24:32;3.22;;;1.75;;
86619;SDS011;77338;48.126;11.620;2024-03-23T03:25:03;3.58;;;1.80;;
86619;SDS011;77338;48.126;11.620;2024-03-23T03:25:35;2.17;;;1.48;;
86619;SDS011;77338;48.126;11.620;2024-03-23T03:26:06;5.97;;;1.70;;
86619;SDS011;77338;48.126;11.620;2024-03-23T03:26:37;3.30;;;1.67;;
86619;SDS011;77338;48.126;11.620;2024-03-23T03:27:07;2.78;;;1.98;;
86619;SDS011;77338;48.126;11.620;2024-03-23T03:27:38;3.80;;;1.80;;
86619;SDS011;77338;48.126;11.620;2024-03-23T03:28:10;3.33;;;1.80;;
86619;SDS011;77338;48.126;11.620;2024-03-23T03:28:40;3.88;;;1.83;;
86619;SDS011;77338;48.126;11.620;2024-03-23T03:29:11;3.03;;;1.50;;
86619;SDS011;77338;48.126;11.620;2024-03-23T03:29:42;3.38;;;2.03;;
86619;SDS011;77338;48.126;11.620;2024-03-23T03:30:12;3.05;;;1.52;;
86619;SDS011;77338;48.126;11.620;2024-03-23T03:30:43;2.58;;;1.67;;
86619;SDS011;77338;48.126;11.620;2024-03-23T03:31:15;3.10;;;1.50;;
86619;SDS011;77338;48.126;11.620;2024-03-23T03:31:46;5.05;;;2.20;;
86619;SDS011;77338;48.126;11.620;2024-03-23T03:32:17;2.47;;;1.65;;
86619;SDS011;77338;48.126;11.620;2024-03-23T03:32:49;2.70;;;1.50;;
86619;SDS011;77338;48.126;11.620;2024-03-23T03:33:20;3.65;;;1.73;;
86619;SDS011;77338;48.126;11.620;2024-03-23T03:33:50;3.75;;;1.63;;
86619;SDS011;77338;48.126;11.620;2024-03-23T03:34:21;2.33;;;1.83;;
86619;SDS011;77338;48.126;11.620;2024-03-23T03:34:52;2.90;;;1.88;;
86619;SDS011;77338;48.126;11.620;2024-03-23T03:35:23;3.05;;;1.73;;
86619;SDS011;77338;48.126;11.620;2024-03-23T03:35:54;2.92;;;1.80;;
86619;SDS011;77338;48.126;11.620;2024-03-23T03:36:25;3.08;;;1.60;;
86619;SDS011;77338;48.126;11.620;2024-03-23T03:36:56;2.55;;;1.83;;
86619;SDS011;77338;48.126;11.620;2024-03-23T03:37:27;3.63;;;1.60;;
86619;SDS011;77338;48.126;11.620;2024-03-23T03:37:58;2.95;;;1.70;;
86619;SDS011;77338;48.126;11.620;2024-03-23T03:38:29;2.78;;;1.73;;
86619;SDS011;77338;48.126;11.620;2024-03-23T03:38:59;2.67;;;1.65;;
86619;SDS011;77338;48.126;11.620;2024-03-23T03:39:30;2.42;;;1.52;;
86619;SDS011;77338;48.126;11.620;2024-03-23T03:40:01;2.42;;;1.52;;
86619;SDS011;77338;48.126;11.620;2024-03-23T03:40:32;3.33;;;1.58;;
86619;SDS011;77338;48.126;11.620;2024-03-23T03:41:02;2.63;;;1.50;;
86619;SDS011;77338;48.126;11.620;2024-03-23T03:41:34;2.65;;;1.60;;
86619;SDS011;77338;48.126;11.620;2024-03-23T03:42:05;3.55;;;1.70;;
86619;SDS011;77338;48.126;11.620;2024-03-23T03:42:37;3.42;;;1.55;;
86619;SDS011;77338;48.126;11.620;2024-03-23T03:43:07;2.53;;;1.50;;
86619;SDS011;77338;48.126;11.620;2024-03-23T03:43:38;4.25;;;1.60;;
86619;SDS011;77338;48.126;11.620;2024-03-23T03:44:09;2.78;;;1.30;;
86619;SDS011;77338;48.126;11.620;2024-03-23T03:44:39;1.55;;;1.40;;
86619;SDS011;77338;48.126;11.620;2024-03-23T03:45:10;2.72;;;1.38;;
86619;SDS011;77338;48.126;11.620;2024-03-23T03:45:41;2.85;;;1.40;;
86619;SDS011;77338;48.126;11.620;2024-03-23T03:46:12;2.08;;;1.40;;
86619;SDS011;77338;48.126;11.620;2024-03-23T03:46:43;2.33;;;1.45;;
86619;SDS011;77338;48.126;11.620;2024-03-23T03:47:13;1.90;;;1.40;;
86619;SDS011;77338;48.126;11.620;2024-03-23T03:47:44;2.53;;;1.60;;
86619;SDS011;77338;48.126;11.620;2024-03-23T03:48:15;2.13;;;1.50;;
86619;SDS011;77338;48.126;11.620;2024-03-23T03:48:45;2.70;;;1.48;;
86619;SDS011;77338;48.126;11.620;2024-03-23T03:49:18;4.68;;;1.83;;
86619;SDS011;77338;48.126;11.620;2024-03-23T03:49:48;3.92;;;1.65;;
86619;SDS011;77338;48.126;11.620;2024-03-23T03:50:21;3.42;;;1.55;;
86619;SDS011;77338;48.126;11.620;2024-03-23T03:50:52;5.72;;;1.85;;
86619;SDS011;77338;48.126;11.620;2024-03-23T03:51:23;3.47;;;1.60;;
86619;SDS011;77338;48.126;11.620;2024-03-23T03:51:54;2.38;;;1.60;;
86619;SDS011;77338;48.126;11.620;2024-03-23T03:52:25;2.28;;;1.35;;
86619;SDS011;77338;48.126;11.620;2024-03-23T03:52:55;3.40;;;1.50;;
86619;SDS011;77338;48.126;11.620;2024-03-23T03:53:27;3.97;;;1.70;;
86619;SDS011;77338;48.126;11.620;2024-03-23T03:53:58;2.80;;;1.65;;
86619;SDS011;77338;48.126;11.620;2024-03-23T03:54:29;2.25;;;1.63;;
86619;SDS011;77338;48.126;11.620;2024-03-23T03:55:02;2.42;;;1.35;;
86619;SDS011;77338;48.126;11.620;2024-03-23T03:55:33;2.40;;;1.58;;
86619;SDS011;77338;48.126;11.620;2024-03-23T03:56:04;4.30;;;1.75;;
86619;SDS011;77338;48.126;11.620;2024-03-23T03:56:35;3.10;;;1.50;;
86619;SDS011;77338;48.126;11.620;2024-03-23T03:57:06;2.50;;;1.42;;
86619;SDS011;77338;48.126;11.620;2024-03-23T03:57:36;2.25;;;1.58;;
86619;SDS011;77338;48.126;11.620;2024-03-23T03:58:07;3.03;;;1.80;;
86619;SDS011;77338;48.126;11.620;2024-03-23T03:58:38;2.55;;;1.52;;